Time;durP1;ratioP1;P1;durP2;ratioP2;P2;SDS_P1;SDS_P2;PMS_P1;PMS_P2;Temp;Humidity;BMP_temperature;BMP_pressure;BME280_temperature;BME280_humidity;BME280_pressure;Samples;Min_cycle;Max_cycle;Signal;HPM_P1;HPM_P2
2022/08/04 00:00:23;;;;;;;3.55;0.50;;;23.80;64.50;;;;;;5130311;27;20350;-73
2022/08/04 00:03:11;;;;;;;1.83;0.40;;;23.80;64.60;;;;;;5128937;27;20104;-74
2022/08/04 00:08:44;;;;;;;1.75;0.40;;;23.70;64.60;;;;;;5130418;27;20379;-73
2022/08/04 00:11:15;;;;;;;4.43;1.58;;;23.70;64.60;;;;;;5128990;28;20483;-73
2022/08/04 00:13:46;;;;;;;1.15;0.38;;;23.70;64.60;;;;;;5128955;28;20494;-73
2022/08/04 00:16:13;;;;;;;1.10;0.40;;;23.70;64.60;;;;;;5128817;28;20076;-73
2022/08/04 00:18:44;;;;;;;1.90;0.35;;;23.70;64.70;;;;;;5128868;28;20043;-73
2022/08/04 00:21:12;;;;;;;1.70;0.43;;;23.70;64.60;;;;;;5128822;28;20046;-73
2022/08/04 00:23:41;;;;;;;1.45;0.68;;;23.70;64.70;;;;;;5129063;27;20399;-73
2022/08/04 00:26:08;;;;;;;0.90;0.38;;;23.70;64.70;;;;;;5128909;28;20039;-73
2022/08/04 00:28:37;;;;;;;1.52;0.50;;;23.70;64.70;;;;;;5128681;27;20035;-73
2022/08/04 00:31:04;;;;;;;1.70;0.40;;;23.70;64.70;;;;;;5129874;27;20450;-73
2022/08/04 00:33:30;;;;;;;2.45;0.40;;;23.70;64.70;;;;;;5129860;27;20035;-74
2022/08/04 00:35:58;;;;;;;0.85;0.30;;;23.70;64.70;;;;;;5128842;28;20067;-74
2022/08/04 00:38:24;;;;;;;2.13;0.50;;;23.70;65.50;;;;;;5128425;27;20495;-73
2022/08/04 00:49:53;;;;;;;1.50;0.50;;;23.70;64.80;;;;;;5152850;27;1168754;-73
2022/08/04 00:52:39;;;;;;;2.95;0.93;;;23.70;64.90;;;;;;5153059;27;20042;-73
2022/08/04 01:01:06;;;;;;;3.88;0.50;;;23.70;64.90;;;;;;5130302;27;20358;-73
2022/08/04 01:04:02;;;;;;;1.90;0.65;;;23.70;64.90;;;;;;5128759;27;20051;-73
2022/08/04 01:14:51;;;;;;;1.35;0.50;;;23.70;65.00;;;;;;5089467;28;20359;-73
2022/08/04 01:20:19;;;;;;;1.00;0.40;;;23.70;65.00;;;;;;5129434;27;1856243;-73
2022/08/04 01:29:05;;;;;;;1.77;0.75;;;23.60;65.00;;;;;;5130304;27;20431;-73
2022/08/04 01:34:20;;;;;;;1.45;0.43;;;23.60;65.00;;;;;;5130331;27;20184;-74
2022/08/04 01:37:06;;;;;;;1.65;0.50;;;23.60;64.90;;;;;;5129058;28;20058;-73
2022/08/04 01:39:41;;;;;;;0.70;0.30;;;23.60;65.00;;;;;;5129208;28;20039;-74
2022/08/04 01:42:09;;;;;;;1.77;0.43;;;23.60;65.00;;;;;;5128821;28;20039;-73
2022/08/04 01:44:36;;;;;;;1.52;0.52;;;23.60;65.00;;;;;;5111762;28;20085;-73
2022/08/04 01:47:02;;;;;;;1.80;0.68;;;23.60;65.00;;;;;;5116996;28;20044;-73
2022/08/04 01:49:31;;;;;;;1.30;0.50;;;23.60;65.00;;;;;;5108270;28;20039;-74
2022/08/04 01:51:58;;;;;;;1.48;0.40;;;23.60;65.00;;;;;;5108420;28;20096;-73
2022/08/04 01:54:26;;;;;;;3.25;0.82;;;23.60;64.90;;;;;;5108062;28;20032;-73
2022/08/04 01:56:55;;;;;;;3.63;0.63;;;23.60;65.00;;;;;;5108111;28;20043;-73
2022/08/04 01:59:21;;;;;;;1.65;0.50;;;23.60;65.00;;;;;;5108318;28;20040;-73
2022/08/04 02:01:47;;;;;;;2.88;0.30;;;23.60;64.90;;;;;;5108296;28;20036;-73
2022/08/04 02:04:15;;;;;;;1.42;0.40;;;23.60;65.00;;;;;;5108159;28;20418;-73
2022/08/04 02:09:57;;;;;;;1.55;0.50;;;23.60;64.90;;;;;;5130219;27;20406;-73
2022/08/04 02:20:48;;;;;;;0.98;0.40;;;23.50;64.90;;;;;;5130326;27;20353;-73
2022/08/04 02:23:18;;;;;;;1.17;0.40;;;23.50;64.80;;;;;;5129272;28;20027;-73
2022/08/04 02:25:47;;;;;;;1.10;0.63;;;23.50;64.90;;;;;;5128930;28;20528;-73
2022/08/04 02:33:37;;;;;;;1.27;0.50;;;23.50;64.90;;;;;;5089491;27;20413;-73
2022/08/04 02:36:05;;;;;;;2.10;0.57;;;23.50;64.90;;;;;;5088420;28;20127;-73
2022/08/04 02:41:20;;;;;;;2.08;0.57;;;23.50;64.80;;;;;;5129181;27;20400;-73
2022/08/04 02:43:48;;;;;;;1.77;0.50;;;23.60;64.70;;;;;;5129006;28;20044;-73
2022/08/04 02:46:17;;;;;;;1.25;0.30;;;23.50;64.70;;;;;;5128923;28;20122;-73
2022/08/04 02:48:45;;;;;;;2.67;0.47;;;23.50;64.80;;;;;;5129210;28;20425;-73
2022/08/04 02:51:13;;;;;;;1.67;0.50;;;23.50;64.80;;;;;;5129116;28;20061;-73
2022/08/04 02:53:40;;;;;;;1.50;0.60;;;23.50;64.80;;;;;;5128796;27;20070;-73
2022/08/04 02:56:08;;;;;;;1.67;0.40;;;23.50;64.80;;;;;;5129041;28;20078;-73
2022/08/04 02:58:35;;;;;;;1.67;0.50;;;23.50;64.80;;;;;;5129027;28;20100;-73
2022/08/04 03:01:02;;;;;;;1.92;0.60;;;23.50;64.80;;;;;;5128577;27;20047;-73
2022/08/04 03:03:40;;;;;;;1.98;0.82;;;23.50;64.80;;;;;;5128709;28;20118;-73
2022/08/04 03:23:17;;;;;;;1.50;0.40;;;23.50;64.80;;;;;;5130300;27;20391;-73
2022/08/04 03:31:43;;;;;;;1.95;0.60;;;23.50;64.80;;;;;;5130317;27;20362;-74
2022/08/04 03:37:36;;;;;;;1.83;0.57;;;23.40;64.70;;;;;;5130336;27;20403;-74
2022/08/04 03:54:23;;;;;;;1.23;0.63;;;23.40;64.80;;;;;;5130259;27;20399;-73
2022/08/04 04:00:02;;;;;;;1.77;0.50;;;23.40;64.70;;;;;;5130299;27;20654;-73
2022/08/04 04:06:04;;;;;;;2.30;0.75;;;23.40;64.70;;;;;;5129247;27;20444;-73
2022/08/04 04:11:47;;;;;;;0.70;0.40;;;23.40;64.40;;;;;;5130316;27;20410;-73
2022/08/04 04:14:53;;;;;;;1.58;0.70;;;23.40;64.70;;;;;;5129152;28;20054;-73
2022/08/04 04:23:37;;;;;;;2.22;0.73;;;23.40;64.60;;;;;;5130477;27;20349;-73
2022/08/04 04:26:20;;;;;;;1.73;0.50;;;23.40;64.70;;;;;;5128853;28;20643;-73
2022/08/04 04:40:36;;;;;;;2.05;0.73;;;23.30;64.60;;;;;;5130137;27;20354;-73
2022/08/04 04:49:03;;;;;;;0.90;0.55;;;23.30;64.60;;;;;;5130350;27;20399;-73
2022/08/04 04:51:50;;;;;;;0.88;0.45;;;23.30;64.60;;;;;;5129269;27;20227;-73
2022/08/04 04:59:57;;;;;;;1.23;0.65;;;23.30;64.60;;;;;;5130338;27;20350;-73
2022/08/04 05:05:29;;;;;;;0.73;0.40;;;23.30;64.60;;;;;;5130277;27;20407;-73
2022/08/04 05:11:48;;;;;;;1.05;0.50;;;23.30;64.60;;;;;;5153021;27;1160352;-73
2022/08/04 05:20:00;;;;;;;2.33;0.75;;;23.30;64.60;;;;;;5109912;27;20442;-73
2022/08/04 05:28:09;;;;;;;0.88;0.50;;;23.30;64.60;;;;;;5130383;27;20345;-73
2022/08/04 05:30:47;;;;;;;1.65;0.40;;;23.30;64.60;;;;;;5128994;27;20130;-73
2022/08/04 05:33:15;;;;;;;0.88;0.43;;;23.20;64.50;;;;;;5128896;28;20122;-74
2022/08/04 05:35:46;;;;;;;1.20;0.60;;;23.30;64.60;;;;;;5128913;28;20039;-73
2022/08/04 05:38:17;;;;;;;1.80;0.50;;;23.30;64.50;;;;;;5128870;28;20039;-73
2022/08/04 05:40:43;;;;;;;0.88;0.50;;;23.30;64.50;;;;;;5128871;27;20069;-73
2022/08/04 05:43:11;;;;;;;1.48;0.50;;;23.30;64.50;;;;;;5128723;27;20035;-73
2022/08/04 05:45:37;;;;;;;1.15;0.60;;;23.30;64.50;;;;;;5129947;27;20031;-73
2022/08/04 05:48:06;;;;;;;0.90;0.50;;;23.20;64.50;;;;;;5128799;28;20097;-73
2022/08/04 05:50:32;;;;;;;1.15;0.50;;;23.20;64.40;;;;;;5128662;28;20036;-73
2022/08/04 05:52:59;;;;;;;0.80;0.40;;;23.20;64.50;;;;;;5128737;28;20123;-73
2022/08/04 05:55:28;;;;;;;0.85;0.40;;;23.30;64.50;;;;;;5128825;28;20048;-73
2022/08/04 05:57:55;;;;;;;1.48;0.50;;;23.30;64.50;;;;;;5128721;28;20039;-73
2022/08/04 06:00:23;;;;;;;0.82;0.57;;;23.20;64.50;;;;;;5128513;27;20046;-73
2022/08/04 06:02:51;;;;;;;1.23;0.63;;;23.20;64.50;;;;;;5128572;27;20201;-73
2022/08/04 06:05:17;;;;;;;1.10;0.50;;;23.20;64.50;;;;;;5129723;27;20114;-73
2022/08/04 06:07:45;;;;;;;0.73;0.43;;;23.20;64.50;;;;;;5129608;27;20073;-73
2022/08/04 06:10:11;;;;;;;1.67;0.45;;;23.30;64.50;;;;;;5129620;27;20047;-73
2022/08/04 06:12:50;;;;;;;2.00;0.50;;;23.30;64.50;;;;;;5128491;27;20118;-73
2022/08/04 06:15:19;;;;;;;1.20;0.65;;;23.20;64.50;;;;;;5128217;28;20035;-73
2022/08/04 06:17:50;;;;;;;1.33;0.73;;;23.20;64.50;;;;;;5128088;28;20043;-73
2022/08/04 06:20:18;;;;;;;1.20;0.60;;;23.20;64.50;;;;;;5128365;27;20360;-74
2022/08/04 06:22:46;;;;;;;0.90;0.50;;;23.30;64.50;;;;;;5129348;27;20047;-74
2022/08/04 06:25:19;;;;;;;1.17;0.40;;;23.20;64.40;;;;;;5127986;28;20043;-74
2022/08/04 06:27:46;;;;;;;0.80;0.40;;;23.30;64.50;;;;;;5127476;27;20093;-73
2022/08/04 06:30:13;;;;;;;1.10;0.60;;;23.20;64.50;;;;;;5128183;28;20082;-73
2022/08/04 06:32:46;;;;;;;1.40;0.90;;;23.30;64.50;;;;;;5127855;27;20104;-74
2022/08/04 06:35:16;;;;;;;1.67;0.70;;;23.30;64.50;;;;;;5127763;28;20497;-73
2022/08/04 06:37:44;;;;;;;1.10;0.45;;;23.30;64.50;;;;;;5112563;27;20511;-73
2022/08/04 06:40:12;;;;;;;1.75;0.70;;;23.30;64.50;;;;;;5093591;28;20048;-73
2022/08/04 06:42:39;;;;;;;1.00;0.50;;;23.30;64.50;;;;;;5093844;28;20052;-73
2022/08/04 06:45:05;;;;;;;2.55;0.52;;;23.30;64.50;;;;;;5093766;28;20036;-73
2022/08/04 06:47:32;;;;;;;1.35;0.40;;;23.30;64.50;;;;;;5109464;28;20040;-73
2022/08/04 06:49:59;;;;;;;1.27;0.80;;;23.20;64.40;;;;;;5113799;28;20039;-73
2022/08/04 06:52:25;;;;;;;1.67;0.65;;;23.30;64.50;;;;;;5114103;28;20427;-73
2022/08/04 06:54:52;;;;;;;0.73;0.50;;;23.30;64.40;;;;;;5113939;28;20050;-73
2022/08/04 06:57:23;;;;;;;1.95;0.75;;;23.30;64.50;;;;;;5114945;28;20097;-73
2022/08/04 06:59:56;;;;;;;1.02;0.60;;;23.30;64.40;;;;;;5111647;28;20058;-73
2022/08/04 07:02:27;;;;;;;2.65;0.70;;;23.30;64.50;;;;;;5111871;28;20039;-73
2022/08/04 07:04:53;;;;;;;1.42;0.70;;;23.30;64.50;;;;;;5113200;28;20050;-73
2022/08/04 07:07:19;;;;;;;1.90;0.40;;;23.30;64.50;;;;;;5113361;28;20040;-73
2022/08/04 07:09:45;;;;;;;1.23;0.40;;;23.30;64.50;;;;;;5113267;28;20561;-73
2022/08/04 07:12:11;;;;;;;0.85;0.70;;;23.30;64.50;;;;;;5113335;28;20032;-73
2022/08/04 07:14:39;;;;;;;0.90;0.60;;;23.30;64.40;;;;;;5113164;28;20067;-73
2022/08/04 07:17:07;;;;;;;1.13;0.63;;;23.30;64.40;;;;;;5113449;28;20051;-73
2022/08/04 07:19:34;;;;;;;1.55;0.70;;;23.30;64.50;;;;;;5114523;28;20486;-74
2022/08/04 07:22:01;;;;;;;0.77;0.68;;;23.30;64.50;;;;;;5113545;28;20395;-73
2022/08/04 07:24:29;;;;;;;2.55;0.70;;;23.30;64.50;;;;;;5113370;28;20031;-73
2022/08/04 07:26:55;;;;;;;1.05;0.57;;;23.30;64.50;;;;;;5112924;28;20063;-73
2022/08/04 07:29:21;;;;;;;2.05;0.63;;;23.30;64.50;;;;;;5114359;28;20372;-73
2022/08/04 07:31:48;;;;;;;2.03;0.80;;;23.30;64.50;;;;;;5112958;28;20043;-73
2022/08/04 07:34:14;;;;;;;1.20;0.60;;;23.30;64.50;;;;;;5113021;28;20043;-73
2022/08/04 07:36:40;;;;;;;1.48;0.90;;;23.30;64.50;;;;;;5113066;28;20390;-74
2022/08/04 07:39:05;;;;;;;1.48;1.10;;;23.40;64.60;;;;;;5112859;28;20046;-74
2022/08/04 07:41:31;;;;;;;1.85;0.70;;;23.30;64.60;;;;;;5113018;28;20036;-73
2022/08/04 07:43:57;;;;;;;2.25;0.68;;;23.30;64.70;;;;;;5113097;28;20053;-73
2022/08/04 07:46:24;;;;;;;1.80;0.60;;;23.30;64.70;;;;;;5112511;28;20092;-73
2022/08/04 07:48:50;;;;;;;1.48;0.47;;;23.30;64.60;;;;;;5112395;28;20039;-73
2022/08/04 07:51:17;;;;;;;1.60;0.45;;;23.30;64.60;;;;;;5113266;28;20118;-73
2022/08/04 07:53:44;;;;;;;1.98;0.47;;;23.40;64.60;;;;;;5112591;28;20040;-73
2022/08/04 07:56:15;;;;;;;1.25;0.55;;;23.40;64.50;;;;;;5112634;28;20044;-74
2022/08/04 07:58:40;;;;;;;1.00;0.50;;;23.40;64.50;;;;;;5112512;28;20168;-73
2022/08/04 08:01:07;;;;;;;2.30;0.63;;;23.40;64.40;;;;;;5112680;28;20126;-73
2022/08/04 08:03:33;;;;;;;1.98;0.70;;;23.40;64.30;;;;;;5112658;28;20054;-73
2022/08/04 08:05:59;;;;;;;1.50;0.70;;;23.40;64.30;;;;;;5112430;28;20043;-73
2022/08/04 08:08:24;;;;;;;2.05;0.63;;;23.40;64.20;;;;;;5112415;28;20042;-73
2022/08/04 08:10:51;;;;;;;1.77;0.60;;;23.40;64.20;;;;;;5112478;28;20028;-73
2022/08/04 08:13:17;;;;;;;1.13;0.60;;;23.40;64.20;;;;;;5113479;28;20036;-73
2022/08/04 08:15:45;;;;;;;0.88;0.57;;;23.40;64.10;;;;;;5112117;28;20044;-73
2022/08/04 08:18:11;;;;;;;0.85;0.50;;;23.40;64.10;;;;;;5112066;28;20050;-74
2022/08/04 08:20:37;;;;;;;1.00;0.60;;;23.40;64.10;;;;;;5113464;28;20031;-73
2022/08/04 08:23:03;;;;;;;2.45;0.60;;;23.40;64.10;;;;;;5111895;28;20084;-74
2022/08/04 08:25:30;;;;;;;1.55;0.70;;;23.40;64.90;;;;;;5111730;28;20046;-73
2022/08/04 08:27:56;;;;;;;0.82;0.40;;;23.40;64.10;;;;;;5111790;28;20509;-73
2022/08/04 08:30:22;;;;;;;0.95;0.50;;;23.40;64.10;;;;;;5112094;28;20126;-74
2022/08/04 08:32:48;;;;;;;1.30;0.40;;;23.40;64.10;;;;;;5111742;28;20560;-74
2022/08/04 08:35:14;;;;;;;1.42;0.73;;;23.40;64.10;;;;;;5112029;28;20047;-73
2022/08/04 08:37:46;;;;;;;1.30;0.55;;;23.40;64.10;;;;;;5111641;28;20391;-73
2022/08/04 08:40:39;;;;;;;1.40;0.70;;;23.40;64.10;;;;;;5111605;28;20486;-73
2022/08/04 08:49:24;;;;;;;1.13;0.65;;;23.40;64.10;;;;;;5089475;27;20195;-73
2022/08/04 08:54:55;;;;;;;1.35;0.50;;;23.40;64.00;;;;;;5130376;27;20354;-74
2022/08/04 09:00:08;;;;;;;2.47;0.50;;;23.50;64.00;;;;;;5130343;27;20897;-73
2022/08/04 09:05:59;;;;;;;2.35;0.60;;;23.50;63.90;;;;;;5089461;28;20385;-73
2022/08/04 09:08:52;;;;;;;1.00;0.77;;;23.50;63.90;;;;;;5105002;28;20044;-73
2022/08/04 09:11:23;;;;;;;2.67;0.50;;;23.50;63.80;;;;;;5088219;28;20044;-73
2022/08/04 09:19:18;;;;;;;0.90;0.43;;;23.50;63.80;;;;;;5089354;27;20922;-73
2022/08/04 09:22:01;;;;;;;1.77;0.80;;;23.60;63.60;;;;;;5088187;28;20535;-74
2022/08/04 09:24:52;;;;;;;2.20;0.85;;;23.60;63.50;;;;;;5089381;28;20040;-74
2022/08/04 09:27:23;;;;;;;1.20;0.82;;;23.60;63.30;;;;;;5088240;28;20044;-73
2022/08/04 09:30:05;;;;;;;;;;;23.70;63.30;;;;;;5088677;28;20102;-74
2022/08/04 09:38:12;;;;;;;0.70;0.47;;;23.70;63.20;;;;;;5130412;27;20870;-73
2022/08/04 09:40:47;;;;;;;1.10;0.40;;;23.70;63.10;;;;;;5146495;27;20130;-73
2022/08/04 09:43:36;;;;;;;1.50;0.75;;;23.70;63.00;;;;;;5128936;27;20039;-74
2022/08/04 09:46:15;;;;;;;1.45;0.70;;;23.70;63.00;;;;;;5128830;27;20035;-74
2022/08/04 09:54:30;;;;;;;1.55;0.80;;;23.70;63.20;;;;;;5130385;27;20349;-74
2022/08/04 09:57:15;;;;;;;1.90;0.60;;;23.80;63.00;;;;;;5130309;27;20082;-74
2022/08/04 10:02:35;;;;;;;0.98;0.60;;;23.80;62.90;;;;;;5129424;27;1182892;-74
2022/08/04 10:05:04;;;;;;;1.05;0.65;;;23.70;62.90;;;;;;5132738;27;20043;-80
2022/08/04 10:18:57;;;;;;;0.70;0.50;;;23.80;63.00;;;;;;5089479;28;20134;-74
2022/08/04 10:24:41;;;;;;;0.65;0.30;;;23.80;63.00;;;;;;5130427;27;20403;-74
2022/08/04 10:27:15;;;;;;;0.70;0.47;;;23.70;62.90;;;;;;5128702;28;20047;-74
2022/08/04 10:29:43;;;;;;;1.33;0.73;;;23.80;63.10;;;;;;5129285;27;20040;-74
2022/08/04 10:32:23;;;;;;;1.52;0.73;;;23.80;63.10;;;;;;5128880;28;20490;-74
2022/08/04 10:35:11;;;;;;;0.88;0.40;;;23.80;63.10;;;;;;5129211;27;20051;-73
2022/08/04 10:37:45;;;;;;;1.17;0.70;;;23.80;63.10;;;;;;5146120;27;20043;-74
2022/08/04 10:40:48;;;;;;;0.90;0.50;;;23.80;63.20;;;;;;5129097;28;20231;-73
2022/08/04 10:43:12;;;;;;;1.88;0.75;;;23.70;63.10;;;;;;5128450;27;20051;-73
2022/08/04 10:45:45;;;;;;;1.13;0.50;;;23.70;63.20;;;;;;5130312;27;20084;-74
2022/08/04 10:54:04;;;;;;;1.50;0.60;;;23.80;63.30;;;;;;5130465;27;20048;-74
2022/08/04 10:56:37;;;;;;;1.98;0.60;;;23.70;63.20;;;;;;5130191;27;20073;-80
2022/08/04 10:59:10;;;;;;;0.82;0.40;;;23.70;63.30;;;;;;5129221;28;20127;-74
2022/08/04 11:01:40;;;;;;;1.98;0.50;;;23.70;63.20;;;;;;5128912;28;20044;-74
2022/08/04 11:06:57;;;;;;;1.42;0.40;;;23.70;63.20;;;;;;5130300;27;20905;-74
2022/08/04 11:09:23;;;;;;;1.65;0.52;;;23.80;63.30;;;;;;5128956;28;20517;-74
2022/08/04 11:11:55;;;;;;;1.00;0.50;;;23.70;63.20;;;;;;5129266;28;20028;-73
2022/08/04 11:14:27;;;;;;;1.35;0.50;;;23.70;63.30;;;;;;5146117;27;20032;-73
2022/08/04 11:17:05;;;;;;;1.23;0.40;;;23.70;63.30;;;;;;5128918;28;20050;-73
2022/08/04 11:25:25;;;;;;;1.13;0.50;;;23.70;63.30;;;;;;5130377;27;20406;-74
2022/08/04 11:28:30;;;;;;;0.90;0.45;;;23.80;63.20;;;;;;5146164;27;20040;-74
2022/08/04 11:31:03;;;;;;;1.33;0.50;;;23.70;63.20;;;;;;5128999;27;20038;-74
2022/08/04 11:33:55;;;;;;;0.80;0.50;;;23.80;63.30;;;;;;5129202;28;20398;-73
2022/08/04 11:36:45;;;;;;;1.92;0.73;;;23.80;63.30;;;;;;5129069;28;20046;-74
2022/08/04 11:39:20;;;;;;;0.90;0.52;;;23.80;63.30;;;;;;5129045;28;20432;-74
2022/08/04 11:44:47;;;;;;;1.20;0.63;;;23.80;63.30;;;;;;5130355;27;20346;-74
2022/08/04 11:50:40;;;;;;;1.13;0.75;;;23.80;63.30;;;;;;5130317;27;20349;-74
2022/08/04 11:53:07;;;;;;;1.57;0.50;;;23.80;63.30;;;;;;5129241;28;20039;-74
2022/08/04 11:55:34;;;;;;;0.98;0.65;;;23.80;63.30;;;;;;5128863;27;20273;-75
2022/08/04 11:57:59;;;;;;;1.45;0.57;;;23.80;63.30;;;;;;5129173;28;20453;-74
2022/08/04 12:00:28;;;;;;;1.05;0.40;;;23.80;63.40;;;;;;5129104;28;20063;-73
2022/08/04 12:03:22;;;;;;;1.73;0.50;;;23.80;63.40;;;;;;5146073;27;20057;-74
2022/08/04 12:12:08;;;;;;;1.08;0.50;;;23.80;63.40;;;;;;5130416;27;20792;-73
2022/08/04 12:15:14;;;;;;;1.48;0.60;;;23.80;63.50;;;;;;5130055;27;20406;-73
2022/08/04 12:17:48;;;;;;;1.80;0.85;;;23.80;63.50;;;;;;5129078;28;20506;-74
2022/08/04 12:20:20;;;;;;;1.30;0.50;;;23.80;63.60;;;;;;5146342;27;20386;-81
2022/08/04 12:22:50;;;;;;;1.83;0.80;;;23.80;63.60;;;;;;5128845;28;20032;-74
2022/08/04 12:25:38;;;;;;;0.85;0.35;;;23.80;63.50;;;;;;5128856;28;20031;-73
2022/08/04 12:28:14;;;;;;;1.35;0.70;;;23.80;63.60;;;;;;5130035;27;20067;-74
2022/08/04 12:30:54;;;;;;;0.73;0.40;;;23.80;63.60;;;;;;5128630;28;20039;-74
2022/08/04 12:33:23;;;;;;;;;;;23.80;63.60;;;;;;5129081;28;20032;-74
2022/08/04 12:38:32;;;;;;;2.25;0.82;;;23.80;63.60;;;;;;5089513;28;20405;-73
2022/08/04 12:41:02;;;;;;;0.80;0.40;;;23.80;63.70;;;;;;5088193;28;20495;-73
2022/08/04 12:43:36;;;;;;;;;;;23.80;63.70;;;;;;5088563;28;20135;-73
2022/08/04 12:46:05;;;;;;;1.15;0.50;;;23.80;63.70;;;;;;5089200;28;19920;-73
2022/08/04 12:48:34;;;;;;;0.95;0.65;;;23.80;63.70;;;;;;5088089;28;20135;-73
2022/08/04 12:51:00;;;;;;;1.02;0.47;;;23.80;63.70;;;;;;5087919;28;20496;-72
2022/08/04 12:53:30;;;;;;;0.85;0.50;;;23.80;63.70;;;;;;5088281;28;20075;-73
2022/08/04 12:55:57;;;;;;;0.85;0.47;;;23.80;63.70;;;;;;5088091;28;20040;-73
2022/08/04 12:58:26;;;;;;;1.67;0.60;;;23.80;63.70;;;;;;5088040;28;20036;-72
2022/08/04 13:00:55;;;;;;;1.02;0.50;;;23.80;63.70;;;;;;5088033;28;20047;-81
2022/08/04 13:03:26;;;;;;;2.40;0.50;;;23.80;63.70;;;;;;5088001;28;20036;-72
2022/08/04 13:05:54;;;;;;;1.10;0.80;;;23.80;63.70;;;;;;5087610;28;20052;-72
2022/08/04 13:08:20;;;;;;;1.00;0.50;;;23.80;63.70;;;;;;5087911;28;20109;-72
2022/08/04 13:10:50;;;;;;;2.05;0.60;;;23.80;63.70;;;;;;5087653;28;20093;-73
2022/08/04 13:13:20;;;;;;;1.35;0.40;;;23.80;63.70;;;;;;5087763;28;20040;-73
2022/08/04 13:16:07;;;;;;;1.45;0.50;;;23.80;63.70;;;;;;5088844;28;20044;-73
2022/08/04 13:18:38;;;;;;;1.13;0.60;;;23.80;63.60;;;;;;5088705;28;20044;-73
2022/08/04 13:21:21;;;;;;;0.80;0.43;;;23.80;63.70;;;;;;5087459;28;20543;-73
2022/08/04 13:23:50;;;;;;;0.80;0.40;;;23.90;63.60;;;;;;5087549;28;20044;-73
2022/08/04 13:26:17;;;;;;;1.00;0.40;;;23.90;63.70;;;;;;5087352;28;20039;-73
2022/08/04 13:28:45;;;;;;;0.80;0.63;;;23.90;63.60;;;;;;5087489;28;20121;-73
2022/08/04 13:31:14;;;;;;;1.08;0.60;;;23.90;63.70;;;;;;5087518;28;20393;-73
2022/08/04 13:33:43;;;;;;;0.73;0.40;;;23.90;63.70;;;;;;5087363;28;20048;-81
2022/08/04 13:36:09;;;;;;;1.05;0.55;;;23.90;63.70;;;;;;5086733;28;20062;-73
2022/08/04 13:38:39;;;;;;;1.45;0.60;;;23.90;63.70;;;;;;5086986;28;20048;-73
2022/08/04 13:41:06;;;;;;;1.23;0.50;;;23.90;63.70;;;;;;5087096;28;20050;-73
2022/08/04 13:43:42;;;;;;;1.13;0.52;;;23.90;63.70;;;;;;5088224;28;20062;-80
2022/08/04 13:46:11;;;;;;;0.88;0.40;;;23.90;63.70;;;;;;5088230;28;20414;-73
2022/08/04 13:48:40;;;;;;;1.15;0.50;;;23.90;63.60;;;;;;5080152;28;20028;-73
2022/08/04 13:51:09;;;;;;;1.45;0.40;;;23.90;63.60;;;;;;5073327;28;20040;-77
2022/08/04 13:53:37;;;;;;;1.30;0.43;;;23.90;63.60;;;;;;5074706;28;20032;-74
2022/08/04 13:56:06;;;;;;;0.80;0.47;;;23.90;63.60;;;;;;5073211;28;20597;-73
2022/08/04 13:58:38;;;;;;;1.30;0.68;;;23.90;63.60;;;;;;5073600;28;20098;-73
2022/08/04 14:01:15;;;;;;;0.98;0.50;;;23.90;63.50;;;;;;5073416;28;20040;-73
2022/08/04 14:04:03;;;;;;;1.15;0.40;;;23.90;63.60;;;;;;5073262;28;20040;-74
2022/08/04 14:06:33;;;;;;;1.05;0.50;;;23.90;63.60;;;;;;5073138;28;20090;-73
2022/08/04 14:09:20;;;;;;;0.93;0.52;;;23.90;63.50;;;;;;5072974;28;20036;-74
2022/08/04 14:11:50;;;;;;;1.38;0.30;;;23.90;63.50;;;;;;5073236;28;20041;-74
2022/08/04 14:14:18;;;;;;;;;;;23.90;63.50;;;;;;5073284;28;20058;-74
2022/08/04 14:19:57;;;;;;;0.85;0.30;;;23.90;63.50;;;;;;5130287;27;20789;-74
2022/08/04 14:25:12;;;;;;;1.05;0.50;;;23.90;63.50;;;;;;5130286;27;20925;-80
2022/08/04 14:27:47;;;;;;;0.70;0.32;;;23.90;64.20;;;;;;5129374;28;20085;-74
2022/08/04 14:30:31;;;;;;;0.82;0.60;;;23.90;63.40;;;;;;5128848;27;20149;-74
2022/08/04 14:35:37;;;;;;;1.15;0.50;;;23.90;63.50;;;;;;5153172;27;1155743;-74
2022/08/04 14:38:06;;;;;;;1.00;0.40;;;23.90;63.40;;;;;;5153439;27;20053;-74
2022/08/04 14:40:34;;;;;;;1.08;0.43;;;24.00;63.50;;;;;;5153076;27;20053;-74
2022/08/04 14:43:01;;;;;;;0.85;0.30;;;24.00;63.50;;;;;;5153389;27;20378;-74
2022/08/04 14:45:32;;;;;;;1.42;0.40;;;24.00;63.40;;;;;;5152881;27;20113;-74
2022/08/04 14:47:59;;;;;;;1.05;0.52;;;24.00;63.40;;;;;;5153175;27;20358;-74
2022/08/04 14:50:43;;;;;;;1.20;0.40;;;24.00;63.40;;;;;;5152888;27;20069;-74
2022/08/04 14:55:54;;;;;;;1.10;0.43;;;24.00;63.40;;;;;;5130259;27;20422;-74
2022/08/04 15:01:04;;;;;;;1.20;0.50;;;24.00;63.40;;;;;;5130304;27;20353;-74
2022/08/04 15:03:31;;;;;;;1.63;0.47;;;24.00;63.30;;;;;;5129269;28;20098;-74
2022/08/04 15:05:59;;;;;;;0.82;0.50;;;24.00;63.30;;;;;;5128914;28;20070;-74
2022/08/04 15:08:27;;;;;;;0.93;0.60;;;24.00;63.30;;;;;;5129241;28;20383;-74
2022/08/04 15:10:57;;;;;;;0.73;0.40;;;24.00;63.30;;;;;;5129091;28;20027;-74
2022/08/04 15:13:26;;;;;;;0.60;0.30;;;24.00;63.30;;;;;;5128924;28;20046;-73
2022/08/04 15:15:52;;;;;;;0.95;0.40;;;24.00;63.30;;;;;;5128772;28;20046;-74
2022/08/04 15:18:18;;;;;;;0.82;0.40;;;24.00;63.30;;;;;;5129017;28;20036;-74
2022/08/04 15:20:45;;;;;;;0.70;0.40;;;24.00;63.30;;;;;;5128616;28;20062;-74
2022/08/04 15:23:11;;;;;;;0.85;0.38;;;24.10;63.30;;;;;;5128985;28;20093;-74
2022/08/04 15:25:41;;;;;;;0.88;0.40;;;24.10;63.30;;;;;;5128492;27;20487;-81
2022/08/04 15:28:13;;;;;;;0.50;0.35;;;24.10;63.30;;;;;;5129929;27;20054;-74
2022/08/04 15:30:40;;;;;;;0.57;0.30;;;24.00;63.20;;;;;;5129739;27;20115;-75
2022/08/04 15:33:07;;;;;;;1.10;0.40;;;24.10;63.30;;;;;;5128495;28;20047;-74
2022/08/04 15:35:33;;;;;;;1.27;0.40;;;24.10;63.30;;;;;;5128693;28;20177;-80
2022/08/04 15:41:01;;;;;;;0.73;0.40;;;24.10;63.30;;;;;;5130429;27;20354;-74
2022/08/04 15:44:04;;;;;;;0.50;0.30;;;24.00;63.20;;;;;;5128980;28;20039;-74
2022/08/04 15:49:19;;;;;;;0.85;0.50;;;24.10;63.20;;;;;;5130423;27;20051;-74
2022/08/04 15:51:45;;;;;;;0.47;0.30;;;24.10;63.20;;;;;;5128871;28;20398;-74
2022/08/04 15:56:57;;;;;;;1.05;0.40;;;24.10;63.20;;;;;;5129021;27;20392;-74
2022/08/04 16:00:04;;;;;;;0.70;0.40;;;24.10;62.90;;;;;;5129060;28;20479;-74
2022/08/04 16:08:10;;;;;;;0.85;0.30;;;24.20;63.00;;;;;;5130287;27;20398;-74
2022/08/04 16:10:39;;;;;;;1.08;0.30;;;24.10;63.00;;;;;;5129100;28;20050;-74
2022/08/04 16:18:37;;;;;;;0.85;0.40;;;24.10;63.00;;;;;;5109747;27;20756;-74
2022/08/04 16:21:05;;;;;;;0.55;0.38;;;24.10;63.00;;;;;;5108554;28;20043;-74
2022/08/04 16:37:41;;;;;;;0.60;0.30;;;24.10;63.00;;;;;;5130453;27;20128;-74
2022/08/04 16:43:07;;;;;;;0.77;0.30;;;24.10;63.00;;;;;;5130222;27;20139;-74
2022/08/04 16:45:54;;;;;;;1.35;0.38;;;24.10;63.00;;;;;;5129011;28;20047;-74
2022/08/04 16:48:22;;;;;;;0.40;0.30;;;24.10;63.00;;;;;;5125429;28;20042;-74
2022/08/04 16:53:34;;;;;;;0.60;0.28;;;24.10;63.00;;;;;;5130317;27;20918;-74
2022/08/04 16:56:00;;;;;;;0.55;0.30;;;24.10;62.90;;;;;;5129085;28;20070;-74
2022/08/04 16:58:30;;;;;;;3.00;0.40;;;24.10;62.90;;;;;;5129138;28;20039;-74
2022/08/04 17:00:57;;;;;;;0.88;0.20;;;24.10;62.90;;;;;;5128946;27;20501;-74
2022/08/04 17:03:23;;;;;;;0.63;0.30;;;24.10;62.90;;;;;;5128885;28;20043;-80
2022/08/04 17:05:49;;;;;;;1.02;0.35;;;24.10;62.90;;;;;;5112083;28;20129;-74
2022/08/04 17:08:19;;;;;;;0.80;0.30;;;24.10;62.90;;;;;;5146269;27;20065;-75
2022/08/04 17:10:47;;;;;;;0.85;0.20;;;24.10;62.90;;;;;;5112585;28;20387;-74
2022/08/04 17:13:22;;;;;;;0.90;0.40;;;24.10;62.90;;;;;;5128651;27;20572;-74
2022/08/04 17:15:49;;;;;;;0.80;0.30;;;24.10;62.90;;;;;;5128675;28;20050;-74
2022/08/04 17:18:18;;;;;;;0.90;0.30;;;24.10;62.90;;;;;;5128937;28;20048;-81
2022/08/04 17:20:44;;;;;;;1.48;0.35;;;24.10;62.90;;;;;;5128550;28;20047;-74
2022/08/04 17:23:32;;;;;;;0.68;0.22;;;24.10;62.80;;;;;;5128523;28;20127;-74
2022/08/04 17:26:06;;;;;;;0.57;0.20;;;24.10;62.80;;;;;;5128306;27;20058;-80
2022/08/04 17:28:34;;;;;;;1.23;0.40;;;24.10;62.80;;;;;;5128768;28;20040;-74
2022/08/04 17:31:01;;;;;;;0.65;0.28;;;24.10;62.80;;;;;;5145712;27;20386;-75
2022/08/04 17:33:27;;;;;;;0.55;0.30;;;24.10;62.80;;;;;;5129600;27;20036;-80
2022/08/04 17:35:57;;;;;;;0.85;0.40;;;24.10;62.80;;;;;;5128208;28;20395;-75
2022/08/04 17:38:29;;;;;;;1.13;0.40;;;24.10;62.80;;;;;;5128551;28;20038;-74
2022/08/04 17:41:00;;;;;;;1.08;0.30;;;24.10;62.80;;;;;;5128148;28;20035;-74
2022/08/04 17:52:00;;;;;;;0.68;0.38;;;24.10;62.70;;;;;;5130348;27;20411;-74
2022/08/04 17:59:55;;;;;;;1.15;0.30;;;24.10;62.70;;;;;;5130444;27;20404;-74
2022/08/04 18:02:22;;;;;;;1.40;0.38;;;24.10;62.70;;;;;;5129193;28;20105;-81
2022/08/04 18:04:50;;;;;;;1.20;0.30;;;24.10;62.70;;;;;;5129084;27;20466;-74
2022/08/04 18:07:19;;;;;;;2.05;0.40;;;24.10;62.70;;;;;;5128822;27;20114;-74
2022/08/04 18:12:34;;;;;;;0.70;0.20;;;24.10;62.60;;;;;;5153056;27;1159362;-74